Pagrindinis puslapis
METAR-TAF:

METAR-TAF

Oro uostai :

St. George, Aliaska, Jungtinės Amerikos Valstijos

platuma: 56-34-43N, ilguma: 169-39-41W, Aukštis: 38 m

Dabartinis oras

Ataskaita buvo paskelbta 19 minutes, ne 23:53 UTC
Vėjas 28 kt iš Šiaurės su gūsio iki 42 kt
Temperatūra 1°C
Drėgmė 100%
Slėgis 977 hPa
Matomumas: 8.0 km
Apsiniaukę ne aukštis 1100 ft
lietus, rūkana

METAR: PAPB 142353Z AUTO 01028G42KT 5SM RA BR OVC011 01/01 A2885 RMK AO2 PK WND 03048/2322 UPE06B45E47RAB01SNB24E34 SLP756 P0014 60036 T00110011 10017 20006 58002 TSNO $

Laikas: 15:12 (00:12 UTC)


TAF: trūkstamas

Orai ataskaitas ir orų prognozės (METAR, TAF).

turimą stotys yra geltonos ir raudonos taškus žemėlapyje.

Perkelti pele per norėdami pamatyti stoties vardą.

Tada spustelėkite, norėdami matyti oro stebėjimo ir prognozės.

Norėdami pakeisti žemėlapį: spustelėkite ant žalios mygtukų su juodo kryžiaus žemyn,; žalią mygtuką su brūkšneliu, jei norite nutolinti; arba žalių rodyklių gretimoms žemėlapius.


METAR-TAF: